sensor_id;sensor_type;location;lat;lon;timestamp;pressure;altitude;pressure_sealevel;temperature;humidity
20983;BME280;10650;51.528;6.748;2023-05-20T00:02:24;102110.28;;;14.11;51.73
20983;BME280;10650;51.528;6.748;2023-05-20T00:04:52;102112.06;;;14.09;51.80
20983;BME280;10650;51.528;6.748;2023-05-20T00:07:20;102119.25;;;14.06;51.81
20983;BME280;10650;51.528;6.748;2023-05-20T00:09:48;102115.63;;;14.08;51.93
20983;BME280;10650;51.528;6.748;2023-05-20T00:12:16;102117.44;;;14.08;52.21
20983;BME280;10650;51.528;6.748;2023-05-20T00:14:45;102118.31;;;14.08;52.09
20983;BME280;10650;51.528;6.748;2023-05-20T00:17:13;102110.28;;;14.04;52.36
20983;BME280;10650;51.528;6.748;2023-05-20T00:19:41;102113.84;;;14.01;52.48
20983;BME280;10650;51.528;6.748;2023-05-20T00:22:09;102110.28;;;13.90;52.83
20983;BME280;10650;51.528;6.748;2023-05-20T00:24:37;102109.41;;;13.81;53.00
20983;BME280;10650;51.528;6.748;2023-05-20T00:27:05;102114.78;;;13.80;53.30
20983;BME280;10650;51.528;6.748;2023-05-20T00:29:33;102108.53;;;13.84;53.23
20983;BME280;10650;51.528;6.748;2023-05-20T00:32:03;102107.63;;;13.66;53.70
20983;BME280;10650;51.528;6.748;2023-05-20T00:34:31;102100.44;;;13.81;53.64
20983;BME280;10650;51.528;6.748;2023-05-20T00:36:59;102108.50;;;13.82;53.57
20983;BME280;10650;51.528;6.748;2023-05-20T00:39:27;102107.63;;;13.79;54.07
20983;BME280;10650;51.528;6.748;2023-05-20T00:41:55;102111.19;;;13.81;53.97
20983;BME280;10650;51.528;6.748;2023-05-20T00:44:26;102109.44;;;13.78;54.04
20983;BME280;10650;51.528;6.748;2023-05-20T00:46:54;102106.72;;;13.74;54.53
20983;BME280;10650;51.528;6.748;2023-05-20T00:49:24;102101.34;;;13.71;54.50
20983;BME280;10650;51.528;6.748;2023-05-20T00:51:52;102106.72;;;13.66;54.53
20983;BME280;10650;51.528;6.748;2023-05-20T00:54:20;102105.84;;;13.70;54.60
20983;BME280;10650;51.528;6.748;2023-05-20T00:56:48;102118.34;;;13.66;55.00
20983;BME280;10650;51.528;6.748;2023-05-20T00:59:17;102113.91;;;13.69;54.94
20983;BME280;10650;51.528;6.748;2023-05-20T01:01:46;102111.19;;;13.64;55.21
20983;BME280;10650;51.528;6.748;2023-05-20T01:04:14;102114.81;;;13.58;55.55
20983;BME280;10650;51.528;6.748;2023-05-20T01:06:44;102110.31;;;13.54;55.50
20983;BME280;10650;51.528;6.748;2023-05-20T01:09:13;102112.97;;;13.49;56.13
20983;BME280;10650;51.528;6.748;2023-05-20T01:11:43;102108.53;;;13.52;55.83
20983;BME280;10650;51.528;6.748;2023-05-20T01:14:17;102115.69;;;13.53;56.14
20983;BME280;10650;51.528;6.748;2023-05-20T01:16:46;102113.88;;;13.53;56.07
20983;BME280;10650;51.528;6.748;2023-05-20T01:19:23;102113.88;;;13.53;56.26
20983;BME280;10650;51.528;6.748;2023-05-20T01:21:56;102115.66;;;13.48;56.42
20983;BME280;10650;51.528;6.748;2023-05-20T01:24:27;102115.66;;;13.36;56.86
20983;BME280;10650;51.528;6.748;2023-05-20T01:26:55;102121.00;;;13.32;57.37
20983;BME280;10650;51.528;6.748;2023-05-20T01:29:24;102115.63;;;13.34;57.19
20983;BME280;10650;51.528;6.748;2023-05-20T01:31:52;102113.88;;;13.36;57.36
20983;BME280;10650;51.528;6.748;2023-05-20T01:34:22;102109.41;;;13.38;57.35
20983;BME280;10650;51.528;6.748;2023-05-20T01:36:51;102109.38;;;13.37;57.32
20983;BME280;10650;51.528;6.748;2023-05-20T01:39:21;102111.16;;;13.31;57.42
20983;BME280;10650;51.528;6.748;2023-05-20T01:41:53;102101.31;;;13.32;57.86
20983;BME280;10650;51.528;6.748;2023-05-20T01:44:22;102103.13;;;13.35;57.99
20983;BME280;10650;51.528;6.748;2023-05-20T01:46:50;102109.34;;;13.27;58.36
20983;BME280;10650;51.528;6.748;2023-05-20T01:49:18;102107.56;;;13.28;58.68
20983;BME280;10650;51.528;6.748;2023-05-20T01:51:47;102103.94;;;13.16;58.69
20983;BME280;10650;51.528;6.748;2023-05-20T01:54:15;102104.88;;;13.20;59.07
20983;BME280;10650;51.528;6.748;2023-05-20T01:56:44;102113.81;;;13.21;59.21
20983;BME280;10650;51.528;6.748;2023-05-20T01:59:14;102103.06;;;13.21;59.04
20983;BME280;10650;51.528;6.748;2023-05-20T02:01:42;102103.97;;;13.21;59.16
20983;BME280;10650;51.528;6.748;2023-05-20T02:04:10;102100.38;;;13.22;59.60
20983;BME280;10650;51.528;6.748;2023-05-20T02:06:38;102101.31;;;13.23;59.74
20983;BME280;10650;51.528;6.748;2023-05-20T02:09:07;102095.03;;;13.19;59.85
20983;BME280;10650;51.528;6.748;2023-05-20T02:11:35;102103.97;;;13.21;59.92
20983;BME280;10650;51.528;6.748;2023-05-20T02:14:04;102095.91;;;13.16;60.49
20983;BME280;10650;51.528;6.748;2023-05-20T02:16:33;102085.16;;;13.13;60.34
20983;BME280;10650;51.528;6.748;2023-05-20T02:19:01;102092.34;;;13.11;60.43
20983;BME280;10650;51.528;6.748;2023-05-20T02:21:30;102088.72;;;13.08;60.65
20983;BME280;10650;51.528;6.748;2023-05-20T02:23:58;102078.88;;;13.04;60.79
20983;BME280;10650;51.528;6.748;2023-05-20T02:26:26;102083.38;;;13.06;60.77
20983;BME280;10650;51.528;6.748;2023-05-20T02:28:54;102090.53;;;13.01;61.44
20983;BME280;10650;51.528;6.748;2023-05-20T02:31:22;102088.72;;;12.94;61.67
20983;BME280;10650;51.528;6.748;2023-05-20T02:33:52;102095.84;;;12.98;61.66
20983;BME280;10650;51.528;6.748;2023-05-20T02:36:20;102094.97;;;12.91;61.92
20983;BME280;10650;51.528;6.748;2023-05-20T02:38:48;102091.38;;;12.89;62.24
20983;BME280;10650;51.528;6.748;2023-05-20T02:41:16;102088.72;;;12.94;62.14
20983;BME280;10650;51.528;6.748;2023-05-20T02:43:45;102085.13;;;12.96;62.27
20983;BME280;10650;51.528;6.748;2023-05-20T02:46:13;102088.69;;;12.85;62.62
20983;BME280;10650;51.528;6.748;2023-05-20T02:48:44;102086.00;;;12.80;62.93
20983;BME280;10650;51.528;6.748;2023-05-20T02:51:14;102092.25;;;12.82;63.09
20983;BME280;10650;51.528;6.748;2023-05-20T02:53:42;102083.31;;;12.80;63.16
20983;BME280;10650;51.528;6.748;2023-05-20T02:56:10;102085.06;;;12.72;63.57
20983;BME280;10650;51.528;6.748;2023-05-20T02:58:38;102077.00;;;12.64;64.04
20983;BME280;10650;51.528;6.748;2023-05-20T03:01:07;102078.75;;;12.57;64.49
20983;BME280;10650;51.528;6.748;2023-05-20T03:03:35;102084.97;;;12.50;64.76
20983;BME280;10650;51.528;6.748;2023-05-20T03:06:07;102074.28;;;12.56;64.82
20983;BME280;10650;51.528;6.748;2023-05-20T03:08:37;102076.06;;;12.60;64.63
20983;BME280;10650;51.528;6.748;2023-05-20T03:11:05;102076.06;;;12.57;64.70
20983;BME280;10650;51.528;6.748;2023-05-20T03:13:33;102078.75;;;12.60;64.93
20983;BME280;10650;51.528;6.748;2023-05-20T03:16:06;102076.97;;;12.58;65.14
20983;BME280;10650;51.528;6.748;2023-05-20T03:18:40;102084.13;;;12.56;64.95
20983;BME280;10650;51.528;6.748;2023-05-20T03:21:11;102086.78;;;12.50;65.66
20983;BME280;10650;51.528;6.748;2023-05-20T03:23:41;102081.41;;;12.51;65.50
20983;BME280;10650;51.528;6.748;2023-05-20T03:26:10;102091.25;;;12.54;65.71
20983;BME280;10650;51.528;6.748;2023-05-20T03:28:38;102084.09;;;12.54;65.89
20983;BME280;10650;51.528;6.748;2023-05-20T03:31:06;102086.78;;;12.57;65.49
20983;BME280;10650;51.528;6.748;2023-05-20T03:33:34;102090.38;;;12.58;65.93
20983;BME280;10650;51.528;6.748;2023-05-20T03:36:03;102085.91;;;12.54;65.96
20983;BME280;10650;51.528;6.748;2023-05-20T03:38:31;102078.72;;;12.46;66.17
20983;BME280;10650;51.528;6.748;2023-05-20T03:41:00;102076.00;;;12.39;66.54
20983;BME280;10650;51.528;6.748;2023-05-20T03:43:28;102076.84;;;12.30;66.84
20983;BME280;10650;51.528;6.748;2023-05-20T03:45:56;102073.16;;;12.09;67.67
20983;BME280;10650;51.528;6.748;2023-05-20T03:48:24;102074.91;;;12.06;67.76
20983;BME280;10650;51.528;6.748;2023-05-20T03:50:52;102075.84;;;12.09;68.02
20983;BME280;10650;51.528;6.748;2023-05-20T03:53:21;102077.59;;;12.09;68.17
20983;BME280;10650;51.528;6.748;2023-05-20T03:55:49;102069.59;;;12.12;68.38
20983;BME280;10650;51.528;6.748;2023-05-20T03:58:19;102069.63;;;12.17;68.18
20983;BME280;10650;51.528;6.748;2023-05-20T04:00:47;102068.72;;;12.16;67.98
20983;BME280;10650;51.528;6.748;2023-05-20T04:03:15;102061.63;;;12.23;67.90
20983;BME280;10650;51.528;6.748;2023-05-20T04:05:44;102066.09;;;12.22;68.39
20983;BME280;10650;51.528;6.748;2023-05-20T04:08:12;102058.97;;;12.27;68.26
20983;BME280;10650;51.528;6.748;2023-05-20T04:10:40;102059.91;;;12.34;67.88
20983;BME280;10650;51.528;6.748;2023-05-20T04:13:09;102059.94;;;12.45;68.03
20983;BME280;10650;51.528;6.748;2023-05-20T04:15:39;102062.66;;;12.46;67.97
20983;BME280;10650;51.528;6.748;2023-05-20T04:18:07;102060.84;;;12.50;68.01
20983;BME280;10650;51.528;6.748;2023-05-20T04:20:35;102073.38;;;12.54;67.90
20983;BME280;10650;51.528;6.748;2023-05-20T04:23:04;102086.78;;;12.48;68.07
20983;BME280;10650;51.528;6.748;2023-05-20T04:25:32;102076.94;;;12.53;67.99
20983;BME280;10650;51.528;6.748;2023-05-20T04:28:02;102078.75;;;12.59;67.53
20983;BME280;10650;51.528;6.748;2023-05-20T04:30:30;102079.69;;;12.59;67.83
20983;BME280;10650;51.528;6.748;2023-05-20T04:33:00;102078.75;;;12.54;67.89
20983;BME280;10650;51.528;6.748;2023-05-20T04:35:29;102086.81;;;12.62;67.46
20983;BME280;10650;51.528;6.748;2023-05-20T04:37:57;102080.56;;;12.61;67.85
20983;BME280;10650;51.528;6.748;2023-05-20T04:40:26;102077.00;;;12.67;67.94
20983;BME280;10650;51.528;6.748;2023-05-20T04:42:54;102082.38;;;12.64;68.21
20983;BME280;10650;51.528;6.748;2023-05-20T04:45:24;102085.94;;;12.69;67.98
20983;BME280;10650;51.528;6.748;2023-05-20T04:47:52;102071.66;;;12.70;68.04
20983;BME280;10650;51.528;6.748;2023-05-20T04:50:21;102074.34;;;12.75;68.03
20983;BME280;10650;51.528;6.748;2023-05-20T04:52:49;102077.94;;;12.81;67.74
20983;BME280;10650;51.528;6.748;2023-05-20T04:55:17;102075.28;;;12.86;67.48
20983;BME280;10650;51.528;6.748;2023-05-20T04:57:47;102075.28;;;12.91;68.02
20983;BME280;10650;51.528;6.748;2023-05-20T05:00:17;102078.88;;;12.91;68.00
20983;BME280;10650;51.528;6.748;2023-05-20T05:02:47;102077.06;;;12.92;68.06
20983;BME280;10650;51.528;6.748;2023-05-20T05:05:15;102069.06;;;13.00;67.73
20983;BME280;10650;51.528;6.748;2023-05-20T05:07:45;102069.06;;;13.06;67.88
20983;BME280;10650;51.528;6.748;2023-05-20T05:10:13;102063.69;;;13.12;67.79
20983;BME280;10650;51.528;6.748;2023-05-20T05:12:41;102070.91;;;13.27;67.61
20983;BME280;10650;51.528;6.748;2023-05-20T05:15:09;102058.41;;;13.44;67.35
20983;BME280;10650;51.528;6.748;2023-05-20T05:17:37;102053.00;;;13.57;67.24
20983;BME280;10650;51.528;6.748;2023-05-20T05:20:07;102062.88;;;13.72;66.35
20983;BME280;10650;51.528;6.748;2023-05-20T05:22:35;102058.38;;;13.84;66.15
20983;BME280;10650;51.528;6.748;2023-05-20T05:25:07;102056.56;;;14.00;65.52
20983;BME280;10650;51.528;6.748;2023-05-20T05:27:36;102056.53;;;14.04;65.35
20983;BME280;10650;51.528;6.748;2023-05-20T05:30:05;102046.66;;;14.15;64.93
20983;BME280;10650;51.528;6.748;2023-05-20T05:32:36;102049.38;;;13.98;64.72
20983;BME280;10650;51.528;6.748;2023-05-20T05:35:05;102065.50;;;14.07;64.88
20983;BME280;10650;51.528;6.748;2023-05-20T05:37:34;102065.47;;;14.02;64.76
20983;BME280;10650;51.528;6.748;2023-05-20T05:40:08;102057.44;;;14.09;65.18
20983;BME280;10650;51.528;6.748;2023-05-20T05:42:36;102054.69;;;14.18;65.06
20983;BME280;10650;51.528;6.748;2023-05-20T05:45:05;102049.34;;;14.15;64.53
20983;BME280;10650;51.528;6.748;2023-05-20T05:47:33;102060.13;;;14.10;64.96
20983;BME280;10650;51.528;6.748;2023-05-20T05:50:01;102052.97;;;14.00;65.08
20983;BME280;10650;51.528;6.748;2023-05-20T05:52:29;102054.75;;;13.99;65.24
20983;BME280;10650;51.528;6.748;2023-05-20T05:54:57;102050.28;;;14.03;65.21
20983;BME280;10650;51.528;6.748;2023-05-20T05:57:27;102056.53;;;14.02;65.38
20983;BME280;10650;51.528;6.748;2023-05-20T05:59:54;102049.38;;;14.09;65.56
20983;BME280;10650;51.528;6.748;2023-05-20T06:02:23;102049.34;;;14.15;65.20
20983;BME280;10650;51.528;6.748;2023-05-20T06:04:52;102045.72;;;14.22;65.21
20983;BME280;10650;51.528;6.748;2023-05-20T06:07:21;102047.47;;;14.42;65.19
20983;BME280;10650;51.528;6.748;2023-05-20T06:09:49;102051.00;;;14.51;64.64
20983;BME280;10650;51.528;6.748;2023-05-20T06:12:17;102051.84;;;14.61;64.72
20983;BME280;10650;51.528;6.748;2023-05-20T06:14:47;102046.50;;;14.57;63.98
20983;BME280;10650;51.528;6.748;2023-05-20T06:17:15;102041.09;;;14.67;64.28
20983;BME280;10650;51.528;6.748;2023-05-20T06:19:43;102029.41;;;14.76;63.87
20983;BME280;10650;51.528;6.748;2023-05-20T06:22:11;102030.25;;;14.81;63.31
20983;BME280;10650;51.528;6.748;2023-05-20T06:24:39;102030.25;;;14.80;63.19
20983;BME280;10650;51.528;6.748;2023-05-20T06:27:07;102032.84;;;14.98;63.58
20983;BME280;10650;51.528;6.748;2023-05-20T06:29:34;102028.34;;;14.96;62.73
20983;BME280;10650;51.528;6.748;2023-05-20T06:32:04;102026.44;;;15.16;62.48
20983;BME280;10650;51.528;6.748;2023-05-20T06:34:32;102015.56;;;15.27;62.05
20983;BME280;10650;51.528;6.748;2023-05-20T06:37:01;102013.72;;;15.35;62.11
20983;BME280;10650;51.528;6.748;2023-05-20T06:39:28;102009.22;;;15.33;61.72
20983;BME280;10650;51.528;6.748;2023-05-20T06:41:56;102007.44;;;15.36;61.31
20983;BME280;10650;51.528;6.748;2023-05-20T06:44:24;102004.63;;;15.47;62.01
20983;BME280;10650;51.528;6.748;2023-05-20T06:46:55;101996.53;;;15.47;61.34
20983;BME280;10650;51.528;6.748;2023-05-20T06:49:26;102000.09;;;15.52;61.16
20983;BME280;10650;51.528;6.748;2023-05-20T06:51:56;102001.84;;;15.58;61.03
20983;BME280;10650;51.528;6.748;2023-05-20T06:54:24;101999.91;;;15.72;60.54
20983;BME280;10650;51.528;6.748;2023-05-20T06:56:52;101997.13;;;15.80;59.97
20983;BME280;10650;51.528;6.748;2023-05-20T06:59:20;101997.94;;;15.90;60.43
20983;BME280;10650;51.528;6.748;2023-05-20T07:01:49;101993.25;;;16.09;59.70
20983;BME280;10650;51.528;6.748;2023-05-20T07:04:17;101991.31;;;16.17;59.13
20983;BME280;10650;51.528;6.748;2023-05-20T07:06:46;101991.28;;;16.22;59.16
20983;BME280;10650;51.528;6.748;2023-05-20T07:09:15;101988.38;;;16.37;59.63
20983;BME280;10650;51.528;6.748;2023-05-20T07:11:43;101983.78;;;16.46;58.56
20983;BME280;10650;51.528;6.748;2023-05-20T07:14:11;101979.09;;;16.58;57.94
20983;BME280;10650;51.528;6.748;2023-05-20T07:16:39;101974.50;;;16.65;57.50
20983;BME280;10650;51.528;6.748;2023-05-20T07:19:07;101987.84;;;16.74;56.97
20983;BME280;10650;51.528;6.748;2023-05-20T07:21:38;101974.22;;;16.85;57.94
20983;BME280;10650;51.528;6.748;2023-05-20T07:24:09;101982.03;;;17.05;57.59
20983;BME280;10650;51.528;6.748;2023-05-20T07:26:37;101987.28;;;17.13;55.73
20983;BME280;10650;51.528;6.748;2023-05-20T07:29:05;101989.75;;;17.27;55.33
20983;BME280;10650;51.528;6.748;2023-05-20T07:31:38;101986.31;;;17.17;54.51
20983;BME280;10650;51.528;6.748;2023-05-20T07:34:06;101968.66;;;16.96;54.76
20983;BME280;10650;51.528;6.748;2023-05-20T07:36:34;101969.75;;;16.83;54.66
20983;BME280;10650;51.528;6.748;2023-05-20T07:39:03;101967.97;;;16.80;55.05
20983;BME280;10650;51.528;6.748;2023-05-20T07:41:37;101967.88;;;16.89;55.71
20983;BME280;10650;51.528;6.748;2023-05-20T07:44:06;101956.06;;;16.97;55.22
20983;BME280;10650;51.528;6.748;2023-05-20T07:46:36;101962.13;;;17.11;54.93
20983;BME280;10650;51.528;6.748;2023-05-20T07:49:05;101959.34;;;17.16;54.93
20983;BME280;10650;51.528;6.748;2023-05-20T07:51:33;101957.38;;;17.25;54.64
20983;BME280;10650;51.528;6.748;2023-05-20T07:54:01;101954.59;;;17.30;54.61
20983;BME280;10650;51.528;6.748;2023-05-20T07:56:29;101964.53;;;17.26;54.14
20983;BME280;10650;51.528;6.748;2023-05-20T07:58:59;101965.34;;;17.33;54.30
20983;BME280;10650;51.528;6.748;2023-05-20T08:01:29;101964.44;;;17.34;54.61
20983;BME280;10650;51.528;6.748;2023-05-20T08:03:57;101964.13;;;17.51;54.66
20983;BME280;10650;51.528;6.748;2023-05-20T08:06:25;101957.69;;;17.58;54.42
20983;BME280;10650;51.528;6.748;2023-05-20T08:08:58;101955.06;;;17.55;54.64
20983;BME280;10650;51.528;6.748;2023-05-20T08:11:26;101957.41;;;17.72;54.58
20983;BME280;10650;51.528;6.748;2023-05-20T08:13:54;101957.97;;;17.90;54.77
20983;BME280;10650;51.528;6.748;2023-05-20T08:16:23;101974.41;;;17.79;54.45
20983;BME280;10650;51.528;6.748;2023-05-20T08:18:51;101964.50;;;17.79;54.33
20983;BME280;10650;51.528;6.748;2023-05-20T08:21:19;101956.66;;;17.66;54.19
20983;BME280;10650;51.528;6.748;2023-05-20T08:23:47;101954.72;;;17.71;54.56
20983;BME280;10650;51.528;6.748;2023-05-20T08:26:15;101947.63;;;17.65;54.76
20983;BME280;10650;51.528;6.748;2023-05-20T08:28:43;101946.94;;;17.55;54.49
20983;BME280;10650;51.528;6.748;2023-05-20T08:31:12;101944.25;;;17.55;54.51
20983;BME280;10650;51.528;6.748;2023-05-20T08:33:41;101945.06;;;17.59;54.75
20983;BME280;10650;51.528;6.748;2023-05-20T08:36:09;101946.63;;;17.71;54.13
20983;BME280;10650;51.528;6.748;2023-05-20T08:38:37;101951.03;;;17.76;54.41
20983;BME280;10650;51.528;6.748;2023-05-20T08:41:05;101950.97;;;17.79;54.52
20983;BME280;10650;51.528;6.748;2023-05-20T08:43:33;101953.31;;;18.00;54.58
20983;BME280;10650;51.528;6.748;2023-05-20T08:46:02;101953.84;;;18.17;53.63
20983;BME280;10650;51.528;6.748;2023-05-20T08:48:32;101957.03;;;17.94;53.23
20983;BME280;10650;51.528;6.748;2023-05-20T08:51:02;101950.28;;;17.70;53.82
20983;BME280;10650;51.528;6.748;2023-05-20T08:53:31;101955.13;;;17.97;54.51
20983;BME280;10650;51.528;6.748;2023-05-20T08:55:59;101944.13;;;18.08;54.36
20983;BME280;10650;51.528;6.748;2023-05-20T08:58:29;101939.41;;;18.16;53.46
20983;BME280;10650;51.528;6.748;2023-05-20T09:00:58;101954.38;;;18.33;53.16
20983;BME280;10650;51.528;6.748;2023-05-20T09:03:26;101948.88;;;18.38;53.25
20983;BME280;10650;51.528;6.748;2023-05-20T09:06:03;101941.22;;;18.57;53.34
20983;BME280;10650;51.528;6.748;2023-05-20T09:08:32;101946.34;;;18.69;52.15
20983;BME280;10650;51.528;6.748;2023-05-20T09:11:01;101937.03;;;18.81;52.46
20983;BME280;10650;51.528;6.748;2023-05-20T09:13:30;101943.00;;;18.97;52.07
20983;BME280;10650;51.528;6.748;2023-05-20T09:16:00;101943.69;;;19.05;51.90
20983;BME280;10650;51.528;6.748;2023-05-20T09:18:28;101943.38;;;19.17;51.31
20983;BME280;10650;51.528;6.748;2023-05-20T09:20:56;101936.31;;;19.12;50.66
20983;BME280;10650;51.528;6.748;2023-05-20T09:23:27;101948.09;;;19.09;51.10
20983;BME280;10650;51.528;6.748;2023-05-20T09:25:56;101937.94;;;19.19;51.06
20983;BME280;10650;51.528;6.748;2023-05-20T09:28:27;101935.66;;;19.36;51.65
20983;BME280;10650;51.528;6.748;2023-05-20T09:30:58;101939.88;;;19.47;50.65
20983;BME280;10650;51.528;6.748;2023-05-20T09:33:27;101937.97;;;19.52;50.94
20983;BME280;10650;51.528;6.748;2023-05-20T09:36:04;101946.06;;;18.81;50.33
20983;BME280;10650;51.528;6.748;2023-05-20T09:38:37;101941.59;;;18.79;51.28
20983;BME280;10650;51.528;6.748;2023-05-20T09:41:06;101946.47;;;19.02;51.89
20983;BME280;10650;51.528;6.748;2023-05-20T09:43:35;101939.03;;;19.12;51.31
20983;BME280;10650;51.528;6.748;2023-05-20T09:46:04;101937.81;;;19.24;51.49
20983;BME280;10650;51.528;6.748;2023-05-20T09:48:34;101929.28;;;19.39;50.46
20983;BME280;10650;51.528;6.748;2023-05-20T09:51:03;101946.72;;;19.29;50.92
20983;BME280;10650;51.528;6.748;2023-05-20T09:53:32;101948.28;;;19.03;50.91
20983;BME280;10650;51.528;6.748;2023-05-20T09:56:05;101939.53;;;19.26;51.43
20983;BME280;10650;51.528;6.748;2023-05-20T09:58:39;101947.13;;;19.46;51.17
20983;BME280;10650;51.528;6.748;2023-05-20T10:01:07;101942.50;;;19.51;50.83
20983;BME280;10650;51.528;6.748;2023-05-20T10:03:36;101939.66;;;19.56;50.38
20983;BME280;10650;51.528;6.748;2023-05-20T10:06:21;101929.19;;;19.42;50.57
20983;BME280;10650;51.528;6.748;2023-05-20T10:09:04;101933.41;;;19.52;50.32
20983;BME280;10650;51.528;6.748;2023-05-20T10:11:47;101930.03;;;19.79;50.80
20983;BME280;10650;51.528;6.748;2023-05-20T10:14:38;101944.97;;;19.59;49.92
20983;BME280;10650;51.528;6.748;2023-05-20T10:17:11;101940.53;;;19.57;50.00
20983;BME280;10650;51.528;6.748;2023-05-20T10:19:43;101947.09;;;19.48;49.64
20983;BME280;10650;51.528;6.748;2023-05-20T10:22:12;101934.38;;;19.51;50.40
20983;BME280;10650;51.528;6.748;2023-05-20T10:24:41;101933.31;;;19.56;50.54
20983;BME280;10650;51.528;6.748;2023-05-20T10:27:11;101933.41;;;19.52;50.47
20983;BME280;10650;51.528;6.748;2023-05-20T10:29:42;101922.97;;;19.71;50.70
20983;BME280;10650;51.528;6.748;2023-05-20T10:32:10;101921.41;;;19.94;50.51
20983;BME280;10650;51.528;6.748;2023-05-20T10:34:46;101917.94;;;19.91;49.46
20983;BME280;10650;51.528;6.748;2023-05-20T10:37:22;101920.50;;;19.95;49.51
20983;BME280;10650;51.528;6.748;2023-05-20T10:39:52;101917.31;;;19.81;49.76
20983;BME280;10650;51.528;6.748;2023-05-20T10:42:30;101925.53;;;19.76;50.12
20983;BME280;10650;51.528;6.748;2023-05-20T10:44:58;101921.19;;;19.70;50.22
20983;BME280;10650;51.528;6.748;2023-05-20T10:47:26;101918.13;;;19.50;50.27
20983;BME280;10650;51.528;6.748;2023-05-20T10:49:54;101916.09;;;19.58;50.39
20983;BME280;10650;51.528;6.748;2023-05-20T10:52:23;101906.75;;;19.68;50.55
20983;BME280;10650;51.528;6.748;2023-05-20T10:54:55;101913.84;;;19.74;50.47
20983;BME280;10650;51.528;6.748;2023-05-20T10:57:24;101910.00;;;19.83;50.27
20983;BME280;10650;51.528;6.748;2023-05-20T10:59:54;101901.03;;;19.81;50.40
20983;BME280;10650;51.528;6.748;2023-05-20T11:02:22;101894.44;;;19.90;51.06
20983;BME280;10650;51.528;6.748;2023-05-20T11:04:54;101901.00;;;20.12;50.15
20983;BME280;10650;51.528;6.748;2023-05-20T11:07:24;101897.88;;;20.26;49.81
20983;BME280;10650;51.528;6.748;2023-05-20T11:09:53;101895.22;;;20.25;49.36
20983;BME280;10650;51.528;6.748;2023-05-20T11:12:22;101906.75;;;20.01;49.39
20983;BME280;10650;51.528;6.748;2023-05-20T11:14:50;101894.41;;;19.91;50.03
20983;BME280;10650;51.528;6.748;2023-05-20T11:17:20;101899.47;;;20.03;50.07
20983;BME280;10650;51.528;6.748;2023-05-20T11:19:49;101888.72;;;20.00;49.69
20983;BME280;10650;51.528;6.748;2023-05-20T11:22:19;101885.25;;;19.95;49.84
20983;BME280;10650;51.528;6.748;2023-05-20T11:24:47;101893.09;;;19.73;50.56
20983;BME280;10650;51.528;6.748;2023-05-20T11:27:15;101886.03;;;19.67;50.80
20983;BME280;10650;51.528;6.748;2023-05-20T11:29:43;101890.13;;;19.82;50.82
20983;BME280;10650;51.528;6.748;2023-05-20T11:32:11;101885.56;;;19.84;50.42
20983;BME280;10650;51.528;6.748;2023-05-20T11:34:40;101884.53;;;19.88;50.77
20983;BME280;10650;51.528;6.748;2023-05-20T11:37:09;101873.69;;;19.88;50.84
20983;BME280;10650;51.528;6.748;2023-05-20T11:39:37;101891.22;;;19.75;49.84
20983;BME280;10650;51.528;6.748;2023-05-20T11:42:05;101892.09;;;19.76;50.49
20983;BME280;10650;51.528;6.748;2023-05-20T11:44:33;101876.16;;;19.65;50.91
20983;BME280;10650;51.528;6.748;2023-05-20T11:47:04;101873.88;;;19.82;51.68
20983;BME280;10650;51.528;6.748;2023-05-20T11:49:38;101876.84;;;20.04;51.18
20983;BME280;10650;51.528;6.748;2023-05-20T11:52:08;101873.41;;;20.28;50.34
20983;BME280;10650;51.528;6.748;2023-05-20T11:54:37;101852.47;;;20.31;50.36
20983;BME280;10650;51.528;6.748;2023-05-20T11:57:05;101860.34;;;20.40;50.15
20983;BME280;10650;51.528;6.748;2023-05-20T11:59:33;101841.81;;;20.25;50.33
20983;BME280;10650;51.528;6.748;2023-05-20T12:02:03;101840.63;;;20.34;50.51
20983;BME280;10650;51.528;6.748;2023-05-20T12:04:40;101838.66;;;20.67;50.64
20983;BME280;10650;51.528;6.748;2023-05-20T12:07:52;101812.59;;;20.88;50.08
20983;BME280;10650;51.528;6.748;2023-05-20T12:10:21;101822.47;;;21.16;50.23
20983;BME280;10650;51.528;6.748;2023-05-20T12:12:50;101824.28;;;21.41;48.66
20983;BME280;10650;51.528;6.748;2023-05-20T12:15:18;101823.06;;;21.50;48.94
20983;BME280;10650;51.528;6.748;2023-05-20T12:17:53;101823.34;;;21.42;49.06
20983;BME280;10650;51.528;6.748;2023-05-20T12:20:35;101814.50;;;21.60;48.17
20983;BME280;10650;51.528;6.748;2023-05-20T12:23:11;101812.91;;;21.78;48.30
20983;BME280;10650;51.528;6.748;2023-05-20T12:25:58;101819.47;;;21.73;48.06
20983;BME280;10650;51.528;6.748;2023-05-20T12:28:34;101817.41;;;21.56;47.93
20983;BME280;10650;51.528;6.748;2023-05-20T12:31:03;101817.91;;;21.42;47.72
20983;BME280;10650;51.528;6.748;2023-05-20T12:33:32;101810.34;;;21.26;48.46
20983;BME280;10650;51.528;6.748;2023-05-20T12:36:00;101813.91;;;21.27;48.31
20983;BME280;10650;51.528;6.748;2023-05-20T12:38:30;101797.28;;;21.36;48.26
20983;BME280;10650;51.528;6.748;2023-05-20T12:40:59;101809.41;;;21.26;48.09
20983;BME280;10650;51.528;6.748;2023-05-20T12:43:27;101804.66;;;21.33;47.89
20983;BME280;10650;51.528;6.748;2023-05-20T12:45:55;101810.72;;;21.16;48.50
20983;BME280;10650;51.528;6.748;2023-05-20T12:48:23;101798.97;;;21.39;48.11
20983;BME280;10650;51.528;6.748;2023-05-20T12:50:51;101788.78;;;21.20;47.65
20983;BME280;10650;51.528;6.748;2023-05-20T12:53:19;101793.91;;;21.30;47.68
20983;BME280;10650;51.528;6.748;2023-05-20T12:55:49;101779.81;;;21.67;48.40
20983;BME280;10650;51.528;6.748;2023-05-20T12:58:17;101792.16;;;22.00;47.92
20983;BME280;10650;51.528;6.748;2023-05-20T13:00:48;101774.91;;;21.99;47.15
20983;BME280;10650;51.528;6.748;2023-05-20T13:03:18;101776.81;;;21.97;46.07